AirNav   Bose Proflight and A20 aviation headeets
 
 785 users online  

51OR Pge Heliport
Salem, Oregon, USA

GOING TO SALEM?


FAA INFORMATION EFFECTIVE 31 JANUARY 2019

Location

FAA Identifier: 51OR
Lat/Long: 44-59-58.4300N / 122-58-37.3420W
44-59.973833N / 122-58.622367W
44.9995639 / -122.9770394
(estimated)
Elevation: 182 ft. / 55 m (estimated)
Variation: 19E (1985)
From city: 3 miles S of SALEM, OR
Time zone: UTC -8 (UTC -7 during Daylight Saving Time)
Zip code: 97305

Heliport Operations

Heliport use: Private use. Permission required prior to landing
Activation date: 09/1984
Control tower: no
ARTCC: SEATTLE CENTER
FSS: MC MINNVILLE FLIGHT SERVICE STATION
Attendance: UNATNDD
Wind indicator: no
Segmented circle: no

Heliport Communications

WX ASOS at SLE (6 nm S): 124.55 (503-371-1062)
WX ASOS at MMV (13 nm NW): 135.675 (503-434-9153)
WX ASOS at UAO (17 nm NE): PHONE 503-678-3011

Nearby radio navigation aids

VOR radial/distance  VOR name  Freq  Var
UBGr159/21.2NEWBERG VOR/DME117.4021E
CVOr006/32.9CORVALLIS VOR/DME115.4018E

 
NDB name  Hdg/Dist  Freq  Var  ID
TURNO336/9.226617ESL ... .-..
LEWISBURG013/26.322515ELWG .-.. .-- --.
BANKS160/38.035616EPND .--. -. -..

Heliport Services

Runway Information

Helipad H1

Dimensions: 48 x 48 ft. / 15 x 15 m
Surface: asphalt
Traffic pattern: leftleft

Heliport Ownership and Management from official FAA records

Ownership: Privately-owned
Owner: PORTLAND GENERAL ELECTRIC CO
121 S.W. SALMON ST, 3WTCO401
PORTLAND, OR 97204
Phone 503-464-8507
Manager: BRIAN SONNIER, CHIEF PILOT
121 SW SALMON ST., 1WTC1304
PORTLAND, OR 97204
Phone (503) 464-8908

Additional Remarks

A52-H1 24' BLDG 69' EAST & 140' WEST, 80' PLINE 420' NORTH, 16' BLDG 260' SOUTH.

Instrument Procedures

There are no published instrument procedures at 51OR.

Some nearby airports with instrument procedures:

KSLE - McNary Field Airport (6 nm S)
KMMV - Mc Minnville Municipal Airport (14 nm NW)
KUAO - Aurora State Airport (17 nm NE)
S12 - Albany Municipal Airport (22 nm S)
KHIO - Portland-Hillsboro Airport (33 nm N)
 
Loc | Ops | Rwys | IFR | FBO | Links
Com | Nav | Svcs | Stats | Notes
Area around 51OR (Pge Heliport)
 
Road maps at: MapQuest Bing Google
 
Aerial photo
No photo
 
Sectional chart

 
Airport distance calculator
Flying to Pge Heliport? Find the distance to fly.

From to 51OR

Sunrise and sunset
Times for 15-Feb-2019
 Local
(UTC-8)
 Zulu
(UTC)
Morning civil twilight06:4314:43
Sunrise07:1415:14
Sunset17:3901:39
Evening civil twilight18:0902:09

Current date and time
Zulu (UTC)  16-Feb-2019 02:37:22
Local (UTC-8)  15-Feb-2019 18:37:22
 
METAR
KSLE 
6nm S 
160156Z 18015G27KT 10SM -RA BKN031 BKN036 OVC075 07/02 A2965 RMK AO2 PK WND 18027/0151 RAB01E28B53 SLP042 P0001 T00670017
KMMV 
14nm NW 
160153Z AUTO 16016G22KT 10SM BKN031 OVC050 06/03 A2965 RMK AO2 RAE02 SLP039 P0000 T00610028
KUAO 
17nm NE 
160153Z 19016G21KT 10SM -RA SCT031 BKN055 OVC070 07/03 A2967 RMK AO2 RAE02B49 SLP046 P0000 T00670028
TAF
KSLE 
6nm S 
160224Z 1602/1624 18015G25KT P6SM -SHRA SCT020 BKN035 OVC060 FM160500 18009KT P6SM OVC015 FM161000 17007KT P6SM -SHRA BKN015 OVC035 FM161700 21006KT P6SM SCT015 BKN035 BKN050
KUAO 
17nm NE 
160224Z 1602/1624 19015G25KT P6SM -SHRA SCT015 BKN035 BKN050 FM160500 18008KT P6SM -SHRA SCT015 BKN025 OVC040 FM160900 17006KT P6SM -SHRA BKN015 OVC035 FM161800 19009KT P6SM -SHRA SCT015 BKN035 OVC050
NOTAMs
Click for the latest NOTAMs
NOTAMs are issued by the DoD/FAA and will open in a separate window not controlled by AirNav.

 

 
 

Would you like to see your business listed on this page?

 If your business provides an interesting product or service to pilots, flight crews, aircraft, or users of the Pge Heliport, you should consider listing it here.  To start the listing process, click on the button below
 
Add a business
 

Other Pages about Pge Heliport

Update a link
 
Copyright © AirNav, LLC. All rights reserved. Privacy Policy  Contact